sensor_id;sensor_type;location;lat;lon;timestamp;pressure;altitude;pressure_sealevel;temperature;humidity
12626;BME280;6378;42.684;23.372;2023-03-21T00:00:44;94879.97;;;12.79;72.13
12626;BME280;6378;42.684;23.372;2023-03-21T00:03:10;94890.94;;;12.89;72.68
12626;BME280;6378;42.684;23.372;2023-03-21T00:05:39;94892.38;;;12.83;73.46
12626;BME280;6378;42.684;23.372;2023-03-21T00:08:05;94894.66;;;12.81;73.88
12626;BME280;6378;42.684;23.372;2023-03-21T00:10:30;94890.41;;;12.80;75.24
12626;BME280;6378;42.684;23.372;2023-03-21T00:12:56;94887.66;;;12.77;76.30
12626;BME280;6378;42.684;23.372;2023-03-21T00:15:24;94880.53;;;12.65;77.02
12626;BME280;6378;42.684;23.372;2023-03-21T00:17:54;94895.16;;;12.64;77.98
12626;BME280;6378;42.684;23.372;2023-03-21T00:20:22;94899.34;;;12.62;78.02
12626;BME280;6378;42.684;23.372;2023-03-21T00:22:48;94896.25;;;12.59;79.04
12626;BME280;6378;42.684;23.372;2023-03-21T00:25:13;94884.91;;;12.50;79.24
12626;BME280;6378;42.684;23.372;2023-03-21T00:27:39;94874.78;;;12.44;79.74
12626;BME280;6378;42.684;23.372;2023-03-21T00:30:05;94888.56;;;12.39;82.23
12626;BME280;6378;42.684;23.372;2023-03-21T00:32:31;94892.47;;;12.41;82.56
12626;BME280;6378;42.684;23.372;2023-03-21T00:34:56;94898.22;;;12.40;82.96
12626;BME280;6378;42.684;23.372;2023-03-21T00:37:21;94900.97;;;12.43;82.65
12626;BME280;6378;42.684;23.372;2023-03-21T00:39:47;94897.50;;;12.43;82.86
12626;BME280;6378;42.684;23.372;2023-03-21T00:42:16;94895.53;;;12.40;83.55
12626;BME280;6378;42.684;23.372;2023-03-21T00:44:42;94895.53;;;12.40;83.11
12626;BME280;6378;42.684;23.372;2023-03-21T00:47:10;94901.28;;;12.38;83.68
12626;BME280;6378;42.684;23.372;2023-03-21T00:49:35;94895.16;;;12.41;83.01
12626;BME280;6378;42.684;23.372;2023-03-21T00:52:07;94895.16;;;12.41;82.47
12626;BME280;6378;42.684;23.372;2023-03-21T00:54:34;94883.81;;;12.32;82.77
12626;BME280;6378;42.684;23.372;2023-03-21T00:57:00;94898.19;;;12.36;82.72
12626;BME280;6378;42.684;23.372;2023-03-21T00:59:27;94880.81;;;12.37;82.57
12626;BME280;6378;42.684;23.372;2023-03-21T01:01:53;94884.69;;;12.36;82.50
12626;BME280;6378;42.684;23.372;2023-03-21T01:04:19;94883.91;;;12.36;82.83
12626;BME280;6378;42.684;23.372;2023-03-21T01:06:46;94859.72;;;12.20;81.92
12626;BME280;6378;42.684;23.372;2023-03-21T01:09:14;94883.47;;;12.34;81.86
12626;BME280;6378;42.684;23.372;2023-03-21T01:11:41;94890.13;;;12.40;85.10
12626;BME280;6378;42.684;23.372;2023-03-21T01:14:07;94886.16;;;12.34;86.20
12626;BME280;6378;42.684;23.372;2023-03-21T01:16:33;94885.34;;;12.30;84.55
12626;BME280;6378;42.684;23.372;2023-03-21T01:18:58;94878.31;;;12.25;85.77
12626;BME280;6378;42.684;23.372;2023-03-21T01:21:25;94878.56;;;12.17;86.75
12626;BME280;6378;42.684;23.372;2023-03-21T01:23:50;94880.38;;;12.12;85.02
12626;BME280;6378;42.684;23.372;2023-03-21T01:26:16;94885.00;;;12.12;84.48
12626;BME280;6378;42.684;23.372;2023-03-21T01:28:42;94873.75;;;12.06;84.09
12626;BME280;6378;42.684;23.372;2023-03-21T01:31:11;94875.88;;;11.97;85.05
12626;BME280;6378;42.684;23.372;2023-03-21T01:33:37;94874.41;;;12.00;86.36
12626;BME280;6378;42.684;23.372;2023-03-21T01:36:02;94874.81;;;12.02;86.89
12626;BME280;6378;42.684;23.372;2023-03-21T01:38:28;94872.97;;;12.06;86.17
12626;BME280;6378;42.684;23.372;2023-03-21T01:40:54;94881.34;;;12.01;85.49
12626;BME280;6378;42.684;23.372;2023-03-21T01:48:40;94867.16;;;11.85;86.07
12626;BME280;6378;42.684;23.372;2023-03-21T01:51:07;94848.78;;;11.71;86.17
12626;BME280;6378;42.684;23.372;2023-03-21T01:53:35;94862.06;;;11.80;86.79
12626;BME280;6378;42.684;23.372;2023-03-21T01:56:10;94872.22;;;11.86;86.64
12626;BME280;6378;42.684;23.372;2023-03-21T01:58:37;94870.94;;;11.80;86.79
12626;BME280;6378;42.684;23.372;2023-03-21T02:01:04;94863.47;;;11.73;87.68
12626;BME280;6378;42.684;23.372;2023-03-21T02:03:32;94864.34;;;11.78;86.83
12626;BME280;6378;42.684;23.372;2023-03-21T02:06:09;94873.19;;;11.78;86.65
12626;BME280;6378;42.684;23.372;2023-03-21T02:08:36;94872.72;;;11.73;86.52
12626;BME280;6378;42.684;23.372;2023-03-21T02:11:02;94873.41;;;11.69;86.57
12626;BME280;6378;42.684;23.372;2023-03-21T02:13:28;94873.41;;;11.69;86.57
12626;BME280;6378;42.684;23.372;2023-03-21T02:18:37;94871.78;;;11.65;85.39
12626;BME280;6378;42.684;23.372;2023-03-21T02:24:26;94868.84;;;11.35;90.02
12626;BME280;6378;42.684;23.372;2023-03-21T02:45:04;94865.94;;;11.24;90.59
12626;BME280;6378;42.684;23.372;2023-03-21T02:47:38;94871.31;;;11.24;90.86
12626;BME280;6378;42.684;23.372;2023-03-21T02:52:35;94861.69;;;11.23;90.86
12626;BME280;6378;42.684;23.372;2023-03-21T02:55:03;94840.59;;;11.10;90.42
12626;BME280;6378;42.684;23.372;2023-03-21T02:57:31;94856.16;;;11.16;91.01
12626;BME280;6378;42.684;23.372;2023-03-21T02:59:57;94863.31;;;11.09;91.29
12626;BME280;6378;42.684;23.372;2023-03-21T03:02:26;94848.22;;;11.04;91.71
12626;BME280;6378;42.684;23.372;2023-03-21T03:04:51;94830.25;;;10.93;91.88
12626;BME280;6378;42.684;23.372;2023-03-21T03:07:43;94854.28;;;11.01;92.85
12626;BME280;6378;42.684;23.372;2023-03-21T03:21:09;94859.28;;;10.83;97.12
12626;BME280;6378;42.684;23.372;2023-03-21T03:23:50;94857.28;;;10.80;98.41
12626;BME280;6378;42.684;23.372;2023-03-21T03:26:25;94856.69;;;10.71;99.19
12626;BME280;6378;42.684;23.372;2023-03-21T03:28:57;94858.53;;;10.67;99.13
12626;BME280;6378;42.684;23.372;2023-03-21T03:31:28;94858.06;;;10.65;99.77
12626;BME280;6378;42.684;23.372;2023-03-21T03:33:59;94846.91;;;10.63;100.00
12626;BME280;6378;42.684;23.372;2023-03-21T03:36:29;94861.91;;;10.64;100.00
12626;BME280;6378;42.684;23.372;2023-03-21T03:39:00;94862.53;;;10.58;100.00
12626;BME280;6378;42.684;23.372;2023-03-21T03:41:29;94863.56;;;10.53;100.00
12626;BME280;6378;42.684;23.372;2023-03-21T03:43:57;94860.88;;;10.53;100.00
12626;BME280;6378;42.684;23.372;2023-03-21T03:46:51;94863.91;;;10.52;100.00
12626;BME280;6378;42.684;23.372;2023-03-21T03:49:22;94867.66;;;10.47;100.00
12626;BME280;6378;42.684;23.372;2023-03-21T03:54:21;94864.53;;;10.45;100.00
12626;BME280;6378;42.684;23.372;2023-03-21T03:56:49;94864.97;;;10.47;100.00
12626;BME280;6378;42.684;23.372;2023-03-21T03:59:15;94865.47;;;10.53;100.00
12626;BME280;6378;42.684;23.372;2023-03-21T04:01:46;94866.34;;;10.41;100.00
12626;BME280;6378;42.684;23.372;2023-03-21T04:04:12;94860.34;;;10.32;100.00
12626;BME280;6378;42.684;23.372;2023-03-21T04:06:44;94868.88;;;10.34;100.00
12626;BME280;6378;42.684;23.372;2023-03-21T04:09:16;94864.88;;;10.28;100.00
12626;BME280;6378;42.684;23.372;2023-03-21T04:11:42;94873.81;;;10.32;100.00
12626;BME280;6378;42.684;23.372;2023-03-21T04:14:07;94871.56;;;10.34;100.00
12626;BME280;6378;42.684;23.372;2023-03-21T04:16:33;94870.78;;;10.49;100.00
12626;BME280;6378;42.684;23.372;2023-03-21T04:18:58;94873.91;;;10.35;100.00
12626;BME280;6378;42.684;23.372;2023-03-21T04:21:23;94871.81;;;10.29;100.00
12626;BME280;6378;42.684;23.372;2023-03-21T04:23:49;94834.56;;;9.99;100.00
12626;BME280;6378;42.684;23.372;2023-03-21T04:26:19;94864.50;;;10.14;100.00
12626;BME280;6378;42.684;23.372;2023-03-21T04:28:45;94862.75;;;10.06;100.00
12626;BME280;6378;42.684;23.372;2023-03-21T04:31:10;94860.66;;;9.99;100.00
12626;BME280;6378;42.684;23.372;2023-03-21T04:33:37;94855.28;;;9.99;100.00
12626;BME280;6378;42.684;23.372;2023-03-21T04:36:06;94850.59;;;9.96;100.00
12626;BME280;6378;42.684;23.372;2023-03-21T04:38:34;94855.13;;;9.92;100.00
12626;BME280;6378;42.684;23.372;2023-03-21T04:41:00;94862.47;;;9.95;100.00
12626;BME280;6378;42.684;23.372;2023-03-21T04:43:27;94854.50;;;9.98;100.00
12626;BME280;6378;42.684;23.372;2023-03-21T04:45:53;94856.59;;;10.05;100.00
12626;BME280;6378;42.684;23.372;2023-03-21T04:48:18;94861.66;;;10.07;100.00
12626;BME280;6378;42.684;23.372;2023-03-21T04:50:45;94868.53;;;10.20;100.00
12626;BME280;6378;42.684;23.372;2023-03-21T04:53:11;94866.25;;;10.22;100.00
12626;BME280;6378;42.684;23.372;2023-03-21T04:55:36;94871.03;;;10.44;100.00
12626;BME280;6378;42.684;23.372;2023-03-21T04:58:03;94867.19;;;10.61;100.00
12626;BME280;6378;42.684;23.372;2023-03-21T05:00:28;94867.91;;;10.73;100.00
12626;BME280;6378;42.684;23.372;2023-03-21T05:02:55;94868.03;;;10.80;100.00
12626;BME280;6378;42.684;23.372;2023-03-21T05:05:22;94875.50;;;10.87;100.00
12626;BME280;6378;42.684;23.372;2023-03-21T05:07:47;94877.94;;;10.92;100.00
12626;BME280;6378;42.684;23.372;2023-03-21T05:10:13;94877.59;;;10.94;100.00
12626;BME280;6378;42.684;23.372;2023-03-21T05:12:38;94850.88;;;10.69;100.00
12626;BME280;6378;42.684;23.372;2023-03-21T05:15:04;94877.59;;;10.94;100.00
12626;BME280;6378;42.684;23.372;2023-03-21T05:17:30;94880.19;;;10.90;100.00
12626;BME280;6378;42.684;23.372;2023-03-21T05:19:55;94874.47;;;10.92;100.00
12626;BME280;6378;42.684;23.372;2023-03-21T05:22:23;94876.03;;;10.93;100.00
12626;BME280;6378;42.684;23.372;2023-03-21T05:24:51;94851.31;;;10.71;100.00
12626;BME280;6378;42.684;23.372;2023-03-21T05:27:21;94867.97;;;10.61;100.00
12626;BME280;6378;42.684;23.372;2023-03-21T05:30:18;94877.63;;;10.62;100.00
12626;BME280;6378;42.684;23.372;2023-03-21T05:32:45;94859.16;;;10.45;100.00
12626;BME280;6378;42.684;23.372;2023-03-21T05:35:10;94869.81;;;10.57;100.00
12626;BME280;6378;42.684;23.372;2023-03-21T05:37:36;94882.13;;;10.74;100.00
12626;BME280;6378;42.684;23.372;2023-03-21T05:40:03;94879.53;;;10.77;100.00
12626;BME280;6378;42.684;23.372;2023-03-21T05:42:30;94882.47;;;10.88;100.00
12626;BME280;6378;42.684;23.372;2023-03-21T05:44:56;94872.19;;;10.94;100.00
12626;BME280;6378;42.684;23.372;2023-03-21T05:47:21;94847.47;;;10.88;100.00
12626;BME280;6378;42.684;23.372;2023-03-21T05:49:47;94869.09;;;11.11;100.00
12626;BME280;6378;42.684;23.372;2023-03-21T05:52:12;94838.19;;;11.05;99.47
12626;BME280;6378;42.684;23.372;2023-03-21T05:54:38;94864.59;;;11.34;96.03
12626;BME280;6378;42.684;23.372;2023-03-21T05:57:04;94857.00;;;11.40;94.92
12626;BME280;6378;42.684;23.372;2023-03-21T05:59:30;94824.88;;;11.31;92.62
12626;BME280;6378;42.684;23.372;2023-03-21T06:01:56;94854.13;;;11.67;90.69
12626;BME280;6378;42.684;23.372;2023-03-21T06:04:21;94855.19;;;11.82;90.11
12626;BME280;6378;42.684;23.372;2023-03-21T06:06:47;94854.72;;;11.99;87.27
12626;BME280;6378;42.684;23.372;2023-03-21T06:09:12;94853.53;;;12.20;85.53
12626;BME280;6378;42.684;23.372;2023-03-21T06:11:39;94845.63;;;12.30;87.23
12626;BME280;6378;42.684;23.372;2023-03-21T06:14:08;94854.94;;;13.08;100.00
12626;BME280;6378;42.684;23.372;2023-03-21T06:16:33;94850.16;;;12.98;91.47
12626;BME280;6378;42.684;23.372;2023-03-21T06:18:59;94850.97;;;13.02;82.62
12626;BME280;6378;42.684;23.372;2023-03-21T06:21:24;94855.13;;;13.19;78.41
12626;BME280;6378;42.684;23.372;2023-03-21T06:23:50;94856.44;;;13.32;74.37
12626;BME280;6378;42.684;23.372;2023-03-21T06:26:17;94855.50;;;13.21;73.81
12626;BME280;6378;42.684;23.372;2023-03-21T06:28:48;94828.63;;;13.05;72.11
12626;BME280;6378;42.684;23.372;2023-03-21T06:31:13;94853.56;;;13.18;74.25
12626;BME280;6378;42.684;23.372;2023-03-21T06:33:39;94851.41;;;13.04;74.32
12626;BME280;6378;42.684;23.372;2023-03-21T06:36:05;94846.31;;;12.99;74.58
12626;BME280;6378;42.684;23.372;2023-03-21T06:38:31;94847.84;;;13.00;75.52
12626;BME280;6378;42.684;23.372;2023-03-21T06:40:56;94848.72;;;13.04;76.17
12626;BME280;6378;42.684;23.372;2023-03-21T06:43:22;94833.22;;;12.75;76.55
12626;BME280;6378;42.684;23.372;2023-03-21T06:45:47;94851.28;;;12.71;78.62
12626;BME280;6378;42.684;23.372;2023-03-21T06:48:13;94864.59;;;12.83;78.50
12626;BME280;6378;42.684;23.372;2023-03-21T06:50:38;94831.84;;;12.62;77.56
12626;BME280;6378;42.684;23.372;2023-03-21T06:53:04;94855.97;;;12.74;77.80
12626;BME280;6378;42.684;23.372;2023-03-21T06:55:30;94852.84;;;12.72;78.68
12626;BME280;6378;42.684;23.372;2023-03-21T06:57:56;94861.38;;;12.74;79.64
12626;BME280;6378;42.684;23.372;2023-03-21T07:00:22;94863.72;;;12.75;82.87
12626;BME280;6378;42.684;23.372;2023-03-21T07:02:48;94875.44;;;12.60;89.20
12626;BME280;6378;42.684;23.372;2023-03-21T07:05:15;94873.22;;;12.43;93.64
12626;BME280;6378;42.684;23.372;2023-03-21T07:07:40;94874.78;;;12.44;95.21
12626;BME280;6378;42.684;23.372;2023-03-21T07:10:06;94880.19;;;12.44;97.22
12626;BME280;6378;42.684;23.372;2023-03-21T07:12:32;94887.31;;;12.55;97.92
12626;BME280;6378;42.684;23.372;2023-03-21T07:15:00;94871.41;;;12.73;97.46
12626;BME280;6378;42.684;23.372;2023-03-21T07:17:26;94870.25;;;12.74;97.46
12626;BME280;6378;42.684;23.372;2023-03-21T07:19:52;94873.66;;;12.94;95.69
12626;BME280;6378;42.684;23.372;2023-03-21T07:22:17;94872.72;;;13.09;93.17
12626;BME280;6378;42.684;23.372;2023-03-21T07:24:43;94876.56;;;13.08;92.52
12626;BME280;6378;42.684;23.372;2023-03-21T07:27:08;94874.69;;;13.12;92.33
12626;BME280;6378;42.684;23.372;2023-03-21T07:29:34;94883.50;;;13.09;89.66
12626;BME280;6378;42.684;23.372;2023-03-21T07:31:59;94879.56;;;13.03;91.64
12626;BME280;6378;42.684;23.372;2023-03-21T07:34:25;94838.75;;;12.85;90.27
12626;BME280;6378;42.684;23.372;2023-03-21T07:36:55;94874.47;;;13.24;97.37
12626;BME280;6378;42.684;23.372;2023-03-21T07:39:21;94867.78;;;13.44;91.08
12626;BME280;6378;42.684;23.372;2023-03-21T07:41:47;94874.38;;;13.43;85.72
12626;BME280;6378;42.684;23.372;2023-03-21T07:44:13;94868.63;;;13.49;84.20
12626;BME280;6378;42.684;23.372;2023-03-21T07:46:38;94872.00;;;13.72;80.93
12626;BME280;6378;42.684;23.372;2023-03-21T07:49:04;94864.13;;;13.60;79.98
12626;BME280;6378;42.684;23.372;2023-03-21T07:51:30;94869.69;;;13.74;80.31
12626;BME280;6378;42.684;23.372;2023-03-21T07:53:56;94870.94;;;13.80;79.06
12626;BME280;6378;42.684;23.372;2023-03-21T07:56:21;94853.72;;;13.99;75.07
12626;BME280;6378;42.684;23.372;2023-03-21T07:58:47;94877.53;;;14.19;72.48
12626;BME280;6378;42.684;23.372;2023-03-21T08:01:12;94879.16;;;14.27;69.45
12626;BME280;6378;42.684;23.372;2023-03-21T08:03:38;94867.16;;;14.25;66.99
12626;BME280;6378;42.684;23.372;2023-03-21T08:06:03;94880.53;;;14.44;68.07
12626;BME280;6378;42.684;23.372;2023-03-21T08:08:29;94874.81;;;14.56;63.94
12626;BME280;6378;42.684;23.372;2023-03-21T08:10:54;94871.34;;;14.56;70.76
12626;BME280;6378;42.684;23.372;2023-03-21T08:13:20;94858.19;;;14.58;68.26
12626;BME280;6378;42.684;23.372;2023-03-21T08:15:45;94868.09;;;14.87;61.92
12626;BME280;6378;42.684;23.372;2023-03-21T08:18:11;94870.91;;;15.01;61.61
12626;BME280;6378;42.684;23.372;2023-03-21T08:20:38;94871.69;;;15.02;59.23
12626;BME280;6378;42.684;23.372;2023-03-21T08:23:04;94871.75;;;15.09;58.47
12626;BME280;6378;42.684;23.372;2023-03-21T08:25:29;94863.75;;;15.34;57.67
12626;BME280;6378;42.684;23.372;2023-03-21T08:27:55;94860.72;;;15.46;56.50
12626;BME280;6378;42.684;23.372;2023-03-21T08:30:22;94854.13;;;15.50;56.44
12626;BME280;6378;42.684;23.372;2023-03-21T08:32:50;94851.50;;;15.54;53.83
12626;BME280;6378;42.684;23.372;2023-03-21T08:35:17;94844.56;;;15.71;53.76
12626;BME280;6378;42.684;23.372;2023-03-21T08:37:43;94844.25;;;15.90;53.44
12626;BME280;6378;42.684;23.372;2023-03-21T08:40:14;94852.38;;;15.90;52.77
12626;BME280;6378;42.684;23.372;2023-03-21T08:42:41;94828.28;;;15.71;52.51
12626;BME280;6378;42.684;23.372;2023-03-21T08:45:08;94851.25;;;15.94;52.37
12626;BME280;6378;42.684;23.372;2023-03-21T08:47:34;94827.97;;;15.90;51.07
12626;BME280;6378;42.684;23.372;2023-03-21T08:49:59;94862.50;;;16.00;51.54
12626;BME280;6378;42.684;23.372;2023-03-21T08:52:25;94847.03;;;16.08;54.59
12626;BME280;6378;42.684;23.372;2023-03-21T08:54:51;94855.97;;;16.22;50.80
12626;BME280;6378;42.684;23.372;2023-03-21T08:57:17;94855.19;;;16.22;50.10
12626;BME280;6378;42.684;23.372;2023-03-21T08:59:42;94853.66;;;16.35;49.82
12626;BME280;6378;42.684;23.372;2023-03-21T09:02:10;94845.94;;;16.58;49.83
12626;BME280;6378;42.684;23.372;2023-03-21T09:04:37;94854.09;;;16.69;49.22
12626;BME280;6378;42.684;23.372;2023-03-21T09:07:03;94849.06;;;16.78;48.22
12626;BME280;6378;42.684;23.372;2023-03-21T09:09:30;94849.81;;;16.71;47.76
12626;BME280;6378;42.684;23.372;2023-03-21T09:11:56;94847.13;;;16.64;48.37
12626;BME280;6378;42.684;23.372;2023-03-21T09:14:21;94844.78;;;16.63;48.11
12626;BME280;6378;42.684;23.372;2023-03-21T09:16:47;94840.50;;;16.62;48.08
12626;BME280;6378;42.684;23.372;2023-03-21T09:19:12;94838.19;;;16.67;48.67
12626;BME280;6378;42.684;23.372;2023-03-21T09:21:38;94829.25;;;16.67;48.68
12626;BME280;6378;42.684;23.372;2023-03-21T09:24:04;94832.75;;;16.67;48.67
12626;BME280;6378;42.684;23.372;2023-03-21T09:26:31;94815.66;;;16.63;48.66
12626;BME280;6378;42.684;23.372;2023-03-21T09:28:57;94821.47;;;16.94;49.88
12626;BME280;6378;42.684;23.372;2023-03-21T09:31:25;94820.69;;;17.00;47.45
12626;BME280;6378;42.684;23.372;2023-03-21T09:33:52;94802.84;;;16.67;47.81
12626;BME280;6378;42.684;23.372;2023-03-21T09:36:19;94790.78;;;16.47;47.77
12626;BME280;6378;42.684;23.372;2023-03-21T09:38:47;94815.63;;;16.49;47.79
12626;BME280;6378;42.684;23.372;2023-03-21T09:49:31;94787.31;;;16.82;47.39
12626;BME280;6378;42.684;23.372;2023-03-21T09:52:00;94790.81;;;16.82;47.75
12626;BME280;6378;42.684;23.372;2023-03-21T09:54:32;94791.97;;;16.53;48.53
12626;BME280;6378;42.684;23.372;2023-03-21T09:57:04;94804.38;;;16.33;49.62
12626;BME280;6378;42.684;23.372;2023-03-21T09:59:37;94794.28;;;16.19;50.49
12626;BME280;6378;42.684;23.372;2023-03-21T10:02:32;94807.09;;;16.22;51.09
12626;BME280;6378;42.684;23.372;2023-03-21T10:05:02;94794.69;;;16.21;51.21
12626;BME280;6378;42.684;23.372;2023-03-21T10:07:38;94796.63;;;16.31;51.64
12626;BME280;6378;42.684;23.372;2023-03-21T10:10:13;94780.72;;;16.44;51.30
12626;BME280;6378;42.684;23.372;2023-03-21T10:12:41;94775.69;;;16.67;50.47
12626;BME280;6378;42.684;23.372;2023-03-21T10:15:10;94788.50;;;16.56;50.87
12626;BME280;6378;42.684;23.372;2023-03-21T10:17:42;94773.72;;;16.68;50.61
12626;BME280;6378;42.684;23.372;2023-03-21T10:22:48;94764.31;;;17.11;49.38
12626;BME280;6378;42.684;23.372;2023-03-21T10:25:17;94766.25;;;17.11;49.50
12626;BME280;6378;42.684;23.372;2023-03-21T10:27:44;94753.28;;;17.50;55.64
12626;BME280;6378;42.684;23.372;2023-03-21T10:30:38;94757.03;;;17.88;53.54
12626;BME280;6378;42.684;23.372;2023-03-21T10:33:07;94751.09;;;18.55;50.20
12626;BME280;6378;42.684;23.372;2023-03-21T10:35:35;94758.84;;;19.01;49.14
12626;BME280;6378;42.684;23.372;2023-03-21T10:38:03;94760.72;;;19.45;48.60
12626;BME280;6378;42.684;23.372;2023-03-21T10:40:29;94746.44;;;19.31;45.75
12626;BME280;6378;42.684;23.372;2023-03-21T10:42:56;94765.13;;;19.66;47.64
12626;BME280;6378;42.684;23.372;2023-03-21T10:45:22;94753.53;;;19.59;41.98
12626;BME280;6378;42.684;23.372;2023-03-21T10:47:48;94771.31;;;19.36;43.55
12626;BME280;6378;42.684;23.372;2023-03-21T10:50:17;94769.03;;;19.69;43.69
12626;BME280;6378;42.684;23.372;2023-03-21T10:52:50;94762.91;;;19.88;42.65
12626;BME280;6378;42.684;23.372;2023-03-21T10:55:21;94770.28;;;19.91;40.71
12626;BME280;6378;42.684;23.372;2023-03-21T10:57:54;94759.25;;;19.98;41.67
12626;BME280;6378;42.684;23.372;2023-03-21T11:00:26;94762.59;;;20.09;39.12
12626;BME280;6378;42.684;23.372;2023-03-21T11:02:53;94757.75;;;20.20;38.38
12626;BME280;6378;42.684;23.372;2023-03-21T11:05:36;94748.56;;;20.38;37.28
12626;BME280;6378;42.684;23.372;2023-03-21T11:08:14;94733.31;;;19.83;36.63
12626;BME280;6378;42.684;23.372;2023-03-21T11:11:07;94738.59;;;19.67;37.84
12626;BME280;6378;42.684;23.372;2023-03-21T11:13:43;94735.22;;;19.59;37.98
12626;BME280;6378;42.684;23.372;2023-03-21T11:16:12;94736.59;;;19.71;38.99
12626;BME280;6378;42.684;23.372;2023-03-21T11:18:44;94730.06;;;19.92;39.29
12626;BME280;6378;42.684;23.372;2023-03-21T11:21:14;94713.47;;;20.06;37.29
12626;BME280;6378;42.684;23.372;2023-03-21T11:23:42;94728.75;;;20.03;36.96
12626;BME280;6378;42.684;23.372;2023-03-21T11:26:17;94722.91;;;20.01;39.15
12626;BME280;6378;42.684;23.372;2023-03-21T11:28:49;94727.22;;;20.25;36.80
12626;BME280;6378;42.684;23.372;2023-03-21T11:31:16;94722.50;;;20.03;36.49
12626;BME280;6378;42.684;23.372;2023-03-21T11:33:47;94694.38;;;19.79;36.71
12626;BME280;6378;42.684;23.372;2023-03-21T11:38:47;94707.41;;;19.34;36.46
12626;BME280;6378;42.684;23.372;2023-03-21T11:41:27;94688.53;;;18.82;37.54
12626;BME280;6378;42.684;23.372;2023-03-21T11:43:55;94696.16;;;18.57;38.13
12626;BME280;6378;42.684;23.372;2023-03-21T11:46:25;94692.72;;;18.90;38.80
12626;BME280;6378;42.684;23.372;2023-03-21T11:48:51;94694.91;;;18.69;37.50
12626;BME280;6378;42.684;23.372;2023-03-21T11:51:26;94691.22;;;18.45;38.06
12626;BME280;6378;42.684;23.372;2023-03-21T12:02:43;94691.50;;;18.95;38.55
12626;BME280;6378;42.684;23.372;2023-03-21T12:05:32;94673.41;;;18.74;38.26
12626;BME280;6378;42.684;23.372;2023-03-21T12:10:48;94673.50;;;19.01;36.27
12626;BME280;6378;42.684;23.372;2023-03-21T12:40:21;94647.91;;;18.91;37.74
12626;BME280;6378;42.684;23.372;2023-03-21T12:45:40;94624.03;;;18.69;37.90
12626;BME280;6378;42.684;23.372;2023-03-21T12:51:04;94630.34;;;18.96;37.42
12626;BME280;6378;42.684;23.372;2023-03-21T12:56:44;94630.78;;;18.91;36.70
12626;BME280;6378;42.684;23.372;2023-03-21T12:59:23;94630.47;;;18.85;37.09
12626;BME280;6378;42.684;23.372;2023-03-21T13:01:52;94614.66;;;18.70;37.52
12626;BME280;6378;42.684;23.372;2023-03-21T13:06:46;94612.72;;;18.70;37.77
12626;BME280;6378;42.684;23.372;2023-03-21T13:09:21;94600.75;;;18.60;37.93
12626;BME280;6378;42.684;23.372;2023-03-21T13:11:56;94614.56;;;18.77;37.74
12626;BME280;6378;42.684;23.372;2023-03-21T13:14:27;94598.31;;;18.70;37.98
12626;BME280;6378;42.684;23.372;2023-03-21T13:17:05;94606.09;;;18.71;38.45
12626;BME280;6378;42.684;23.372;2023-03-21T13:19:39;94603.16;;;18.55;39.14
12626;BME280;6378;42.684;23.372;2023-03-21T13:22:28;94600.81;;;18.53;39.43
12626;BME280;6378;42.684;23.372;2023-03-21T13:25:06;94594.66;;;18.42;39.61
12626;BME280;6378;42.684;23.372;2023-03-21T13:27:36;94568.34;;;18.32;39.72
12626;BME280;6378;42.684;23.372;2023-03-21T13:32:47;94591.25;;;18.72;40.19
12626;BME280;6378;42.684;23.372;2023-03-21T13:35:21;94594.03;;;18.69;39.41
12626;BME280;6378;42.684;23.372;2023-03-21T13:38:25;94590.47;;;18.75;39.67
12626;BME280;6378;42.684;23.372;2023-03-21T13:41:11;94582.94;;;18.83;39.44
12626;BME280;6378;42.684;23.372;2023-03-21T13:47:05;94577.59;;;18.76;40.06
12626;BME280;6378;42.684;23.372;2023-03-21T13:55:35;94574.47;;;18.40;41.09
12626;BME280;6378;42.684;23.372;2023-03-21T14:03:44;94557.41;;;18.36;42.24
12626;BME280;6378;42.684;23.372;2023-03-21T14:06:14;94574.28;;;18.57;42.60
12626;BME280;6378;42.684;23.372;2023-03-21T14:08:44;94571.63;;;18.50;42.69
12626;BME280;6378;42.684;23.372;2023-03-21T14:11:16;94565.47;;;18.46;42.38
12626;BME280;6378;42.684;23.372;2023-03-21T14:13:44;94542.75;;;18.23;42.59
12626;BME280;6378;42.684;23.372;2023-03-21T14:16:15;94565.06;;;18.44;42.74
12626;BME280;6378;42.684;23.372;2023-03-21T14:18:54;94572.06;;;18.45;42.46
12626;BME280;6378;42.684;23.372;2023-03-21T14:21:23;94568.19;;;18.46;43.96
12626;BME280;6378;42.684;23.372;2023-03-21T14:24:15;94565.94;;;18.72;45.38
12626;BME280;6378;42.684;23.372;2023-03-21T14:26:44;94571.94;;;18.59;42.69
12626;BME280;6378;42.684;23.372;2023-03-21T14:29:19;94569.09;;;18.70;44.08
12626;BME280;6378;42.684;23.372;2023-03-21T14:31:46;94559.09;;;18.60;42.32
12626;BME280;6378;42.684;23.372;2023-03-21T14:34:13;94536.00;;;18.34;42.05
12626;BME280;6378;42.684;23.372;2023-03-21T14:36:39;94541.22;;;18.18;42.62
12626;BME280;6378;42.684;23.372;2023-03-21T14:39:13;94563.34;;;18.24;43.16
12626;BME280;6378;42.684;23.372;2023-03-21T14:42:04;94556.94;;;18.07;43.62
12626;BME280;6378;42.684;23.372;2023-03-21T14:44:39;94559.69;;;18.00;43.83
12626;BME280;6378;42.684;23.372;2023-03-21T14:47:17;94539.31;;;17.78;44.83
12626;BME280;6378;42.684;23.372;2023-03-21T14:49:43;94561.00;;;17.85;44.81
12626;BME280;6378;42.684;23.372;2023-03-21T14:52:32;94561.00;;;17.85;44.96
12626;BME280;6378;42.684;23.372;2023-03-21T14:55:09;94563.25;;;17.97;45.20
12626;BME280;6378;42.684;23.372;2023-03-21T14:57:36;94561.81;;;17.82;45.38
12626;BME280;6378;42.684;23.372;2023-03-21T15:00:05;94567.84;;;17.59;46.76
12626;BME280;6378;42.684;23.372;2023-03-21T15:02:38;94565.88;;;17.59;47.44
12626;BME280;6378;42.684;23.372;2023-03-21T15:05:14;94565.88;;;17.59;48.68
12626;BME280;6378;42.684;23.372;2023-03-21T15:07:41;94564.72;;;17.57;48.76
12626;BME280;6378;42.684;23.372;2023-03-21T15:10:14;94562.06;;;17.46;48.67
12626;BME280;6378;42.684;23.372;2023-03-21T15:12:52;94553.25;;;17.31;49.77